»·PEaware :: UAL1151 KLAS-KSFO

UAL1151 :: KLAS-KSFO

FLIGHT INFORMATION

Flight Status: Arrived
Operator:
United Airlines
More flights by this operator :: More flights under this callsign
Pilot: Mike C. (16705)
Aircraft: BOEING 737-800
(B738)
More flights by this aircraft type
Origin: KLAS McCarran Intl
United States
Destination: KSFO San Francisco Intl
United States
More flights between these airports :: More routes between these airports
Route: SHEAD1 KENNO RUSME DYAMD3
File this flight plan on PilotEdge
Remarks: PBN / A1B1C1D1S1S2 DOF / 180416 REG / N838NN EET / KZOA0024 OPR / UAL PER / C RMK / TCAS SIMBRIEF
Altitude:
(Current/Filed)
38,000ft
Speed:
(Current/Filed)
463kts
Departed: 15-Apr-18 06:44 PM
Arrived: 15-Apr-18 08:00 PM
Distance/Time
Traveled:
359nm/1:16
Distance/Time
To Go:
Arrived

Flight Plot

Page will automatically refresh every two minutes.

Flight plan parsing failed; only flown route is shown


Map Options




Map Legend


Flown Route
Filed Route
Departure Airport
Arrival Airport
Navaid (VOR, NDB)
Fix

Horizontal Profiles

Position Reports

Time Latitude Longitude Heading Altitude Ground
Speed
15-Apr-18 18:14 36.082449 -115.140291 70 2189ft 0kts
15-Apr-18 18:15 36.082449 -115.140291 70 2189ft 0kts
15-Apr-18 18:16 36.082449 -115.140291 70 2189ft 0kts
15-Apr-18 18:17 36.082449 -115.140291 70 2189ft 0kts
15-Apr-18 18:18 36.082449 -115.140291 70 2189ft 0kts
15-Apr-18 18:19 36.082449 -115.140291 70 2189ft 0kts
15-Apr-18 18:20 36.082449 -115.140291 70 2189ft 0kts
15-Apr-18 18:21 36.082449 -115.140291 70 2189ft 0kts
15-Apr-18 18:22 36.082449 -115.140291 70 2189ft 0kts
15-Apr-18 18:23 36.082449 -115.140291 70 2189ft 0kts
15-Apr-18 18:24 36.082449 -115.140291 70 2189ft 0kts
15-Apr-18 18:25 36.082449 -115.140291 70 2189ft 0kts
15-Apr-18 18:26 36.082449 -115.140291 70 2189ft 0kts
15-Apr-18 18:27 36.082449 -115.140291 70 2189ft 0kts
15-Apr-18 18:28 36.082449 -115.140291 70 2189ft 0kts
15-Apr-18 18:29 36.082283 -115.140684 46 2189ft 2kts
15-Apr-18 18:30 36.081574 -115.140878 341 2189ft 0kts
15-Apr-18 18:31 36.081574 -115.140878 341 2189ft 0kts
15-Apr-18 18:32 36.081574 -115.140878 341 2189ft 0kts
15-Apr-18 18:33 36.081444 -115.142378 187 2189ft 8kts
15-Apr-18 18:34 36.078546 -115.142306 157 2189ft 10kts
15-Apr-18 18:35 36.078312 -115.136360 88 2189ft 24kts
15-Apr-18 18:36 36.078265 -115.128677 89 2189ft 20kts
15-Apr-18 18:37 36.078261 -115.122611 113 2189ft 9kts
15-Apr-18 18:38 36.077244 -115.121293 156 2189ft 5kts
15-Apr-18 18:39 36.077023 -115.121197 164 2189ft 0kts
15-Apr-18 18:40 36.077023 -115.121197 164 2189ft 0kts
15-Apr-18 18:41 36.077023 -115.121197 164 2189ft 0kts
15-Apr-18 18:42 36.076997 -115.121190 168 2189ft 2kts
15-Apr-18 18:43 36.076432 -115.133940 268 2190ft 139kts
15-Apr-18 18:44 36.077217 -115.188970 266 5007ft 189kts
15-Apr-18 18:45 36.059884 -115.261291 213 6792ft 248kts
15-Apr-18 18:46 35.991690 -115.292369 200 7010ft 263kts
15-Apr-18 18:47 35.932906 -115.347737 223 8830ft 272kts
15-Apr-18 18:48 35.908742 -115.377146 223 9014ft 273kts
15-Apr-18 18:49 35.899569 -115.388903 230 9014ft 274kts
15-Apr-18 18:50 35.887396 -115.487045 267 10891ft 315kts
15-Apr-18 18:51 35.889510 -115.598745 268 11017ft 326kts
15-Apr-18 18:52 35.891668 -115.710025 268 13261ft 319kts
15-Apr-18 18:53 35.893508 -115.822342 268 16464ft 334kts
15-Apr-18 18:54 35.896496 -115.939482 278 18876ft 352kts
15-Apr-18 18:55 35.957531 -116.039068 309 20702ft 381kts
15-Apr-18 18:56 36.035917 -116.131636 309 22938ft 399kts
15-Apr-18 18:57 36.118474 -116.227740 309 24978ft 413kts
15-Apr-18 18:58 36.203456 -116.326017 308 26883ft 424kts
15-Apr-18 18:59 36.290803 -116.427083 307 28560ft 433kts
15-Apr-18 19:00 36.379347 -116.530456 306 30067ft 442kts
15-Apr-18 19:01 36.468803 -116.635078 306 31791ft 439kts
15-Apr-18 19:02 36.557516 -116.737910 309 33594ft 437kts
15-Apr-18 19:03 36.661489 -116.821886 316 35012ft 448kts
15-Apr-18 19:04 36.767734 -116.902879 316 36368ft 446kts
15-Apr-18 19:05 36.873382 -116.983573 316 37564ft 445kts
15-Apr-18 19:06 36.979435 -117.064554 316 37886ft 447kts
15-Apr-18 19:07 37.085192 -117.145565 316 37885ft 444kts
15-Apr-18 19:08 37.190327 -117.226681 316 37884ft 444kts
15-Apr-18 19:09 37.268678 -117.287347 316 37884ft 444kts
15-Apr-18 19:10 37.364438 -117.380657 307 37884ft 437kts
15-Apr-18 19:11 37.457124 -117.480281 305 37896ft 435kts
15-Apr-18 19:12 37.497518 -117.606243 269 37897ft 383kts
15-Apr-18 19:13 37.510516 -117.738488 268 37898ft 380kts
15-Apr-18 19:14 37.521852 -117.870526 267 37896ft 379kts
15-Apr-18 19:15 37.532792 -118.002802 267 37893ft 379kts
15-Apr-18 19:16 37.543521 -118.134174 267 37890ft 377kts
15-Apr-18 19:17 37.553855 -118.265426 267 37889ft 377kts
15-Apr-18 19:18 37.562315 -118.375263 267 37895ft 377kts
15-Apr-18 19:19 37.572256 -118.506535 267 37913ft 376kts
15-Apr-18 19:20 37.582026 -118.637711 266 37947ft 375kts
15-Apr-18 19:21 37.593248 -118.790985 266 37983ft 375kts
15-Apr-18 19:22 37.602655 -118.921682 266 37987ft 375kts
15-Apr-18 19:23 37.611932 -119.052605 266 37976ft 373kts
15-Apr-18 19:24 37.619505 -119.161053 266 37966ft 373kts
15-Apr-18 19:25 37.628439 -119.290898 266 37951ft 371kts
15-Apr-18 19:26 37.637236 -119.420858 266 37934ft 370kts
15-Apr-18 19:27 37.645835 -119.549997 265 37919ft 369kts
15-Apr-18 19:28 37.654278 -119.678914 265 37910ft 368kts
15-Apr-18 19:29 37.662612 -119.808345 265 37877ft 368kts
15-Apr-18 19:30 37.670760 -119.937091 265 37543ft 367kts
15-Apr-18 19:31 37.678951 -120.064878 264 34831ft 364kts
15-Apr-18 19:32 37.686594 -120.190192 264 32648ft 350kts
15-Apr-18 19:33 37.693351 -120.304946 264 30807ft 336kts
15-Apr-18 19:34 37.696560 -120.419928 255 29026ft 315kts
15-Apr-18 19:35 37.685004 -120.526962 254 27312ft 302kts
15-Apr-18 19:36 37.672395 -120.634462 254 25597ft 314kts
15-Apr-18 19:37 37.659681 -120.741516 254 23861ft 301kts
15-Apr-18 19:38 37.647092 -120.846915 254 21699ft 301kts
15-Apr-18 19:39 37.634915 -120.947129 254 20539ft 295kts
15-Apr-18 19:40 37.621484 -121.050248 253 18871ft 296kts
15-Apr-18 19:41 37.607756 -121.152286 253 17245ft 295kts
15-Apr-18 19:42 37.593927 -121.254351 253 15639ft 294kts
15-Apr-18 19:43 37.582230 -121.355561 255 14235ft 290kts
15-Apr-18 19:44 37.570448 -121.457539 255 12533ft 296kts
15-Apr-18 19:45 37.558433 -121.559873 256 11297ft 287kts
15-Apr-18 19:46 37.544323 -121.653698 248 10840ft 256kts
15-Apr-18 19:47 37.524096 -121.736903 248 10171ft 246kts
15-Apr-18 19:48 37.504199 -121.819725 249 8986ft 239kts
15-Apr-18 19:49 37.491344 -121.897563 268 7682ft 223kts
15-Apr-18 19:50 37.496465 -121.972841 268 6502ft 201kts
15-Apr-18 19:51 37.500280 -122.039089 268 5480ft 183kts
15-Apr-18 19:52 37.505586 -122.101004 284 4517ft 176kts
15-Apr-18 19:53 37.527813 -122.153705 291 3553ft 163kts
15-Apr-18 19:54 37.549237 -122.204141 291 2683ft 161kts
15-Apr-18 19:55 37.568885 -122.250859 293 1887ft 132kts
15-Apr-18 19:56 37.585879 -122.291296 295 1198ft 124kts
15-Apr-18 19:57 37.601504 -122.328498 295 550ft 118kts
15-Apr-18 19:58 37.617085 -122.365722 294 21ft 105kts
15-Apr-18 19:59 37.621821 -122.377482 286 21ft 21kts
15-Apr-18 20:00 37.622124 -122.385075 267 21ft 5kts
15-Apr-18 20:01 37.622564 -122.389428 268 21ft 16kts
15-Apr-18 20:02 37.620280 -122.391678 119 21ft 12kts
15-Apr-18 20:03 37.620374 -122.390002 24 21ft 3kts
15-Apr-18 20:04 37.620473 -122.389943 25 21ft 0kts
15-Apr-18 20:05 37.620473 -122.389943 25 21ft 0kts
15-Apr-18 20:06 37.620473 -122.389943 25 21ft 0kts
15-Apr-18 20:07 37.620473 -122.389943 25 21ft 0kts
15-Apr-18 20:08 37.620473 -122.389943 25 21ft 0kts

Navigation Log

Ident Type
Flight plan parsing failed, navigation log unavailable